createdAt,value
2018-12-16T00:01:47.074Z,95.86
2018-12-16T00:04:21.008Z,95.18
2018-12-16T00:06:56.356Z,93.80
2018-12-16T00:09:27.189Z,94.46
2018-12-16T00:12:04.468Z,94.14
2018-12-16T00:14:33.572Z,94.56
2018-12-16T00:17:04.043Z,93.36
2018-12-16T00:19:33.603Z,94.13
2018-12-16T00:22:05.614Z,95.33
2018-12-16T00:24:34.851Z,95.39
2018-12-16T00:27:09.656Z,96.55
2018-12-16T00:29:38.342Z,95.99
2018-12-16T00:32:11.718Z,95.72
2018-12-16T00:34:40.655Z,95.97
2018-12-16T00:37:14.045Z,95.92
2018-12-16T00:39:44.335Z,93.04
2018-12-16T00:42:12.864Z,93.31
2018-12-16T00:44:41.241Z,93.09
2018-12-16T00:47:15.403Z,93.62
2018-12-16T00:49:46.250Z,94.29
2018-12-16T00:52:20.087Z,95.28
2018-12-16T00:54:53.781Z,95.14
2018-12-16T00:57:32.224Z,95.29
2018-12-16T01:00:06.112Z,95.51
2018-12-16T01:02:46.794Z,96.42
2018-12-16T01:05:20.839Z,97.34
2018-12-16T09:59:54.988Z,51.43
2018-12-16T10:02:27.924Z,49.84
2018-12-16T10:04:58.838Z,51.42
2018-12-16T10:07:29.098Z,52.25
2018-12-16T10:09:57.974Z,52.55
2018-12-16T10:12:27.023Z,54.25
2018-12-16T10:14:56.617Z,53.84
2018-12-16T10:17:30.721Z,52.86
2018-12-16T10:20:00.847Z,53.44
2018-12-16T10:22:30.677Z,54.54
2018-12-16T10:24:59.007Z,56.04
2018-12-16T10:27:27.294Z,59.95
2018-12-16T10:29:55.663Z,63.39
2018-12-16T10:32:28.762Z,64.18
2018-12-16T10:34:57.082Z,65.09
2018-12-16T10:37:25.380Z,65.55
2018-12-16T10:39:54.807Z,65.83
2018-12-16T10:42:30.530Z,65.61
2018-12-16T10:45:00.165Z,65.94
2018-12-16T10:47:34.108Z,64.25
2018-12-16T10:50:07.902Z,64.49
2018-12-16T10:52:38.287Z,64.72
2018-12-16T10:55:06.958Z,65.01
2018-12-16T10:57:35.367Z,65.63
2018-12-16T11:00:08.592Z,65.56
2018-12-16T11:02:38.890Z,66.22
2018-12-16T11:05:07.462Z,66.85
2018-12-16T11:07:36.024Z,67.00
2018-12-16T11:10:04.451Z,68.36
2018-12-16T11:12:32.863Z,68.01
2018-12-16T11:15:01.163Z,69.13
2018-12-16T11:17:33.135Z,69.34
2018-12-16T11:20:01.555Z,69.49
2018-12-16T12:02:34.289Z,64.50
2018-12-16T12:08:48.703Z,62.58
2018-12-16T12:11:26.549Z,60.13
2018-12-16T12:24:25.113Z,59.81
2018-12-16T12:27:09.096Z,59.23
2018-12-16T12:33:20.780Z,57.91
2018-12-16T12:35:53.887Z,59.46
2018-12-16T12:38:22.222Z,58.42
2018-12-16T12:44:33.843Z,57.46
2018-12-16T12:47:49.222Z,58.11
2018-12-16T12:51:03.838Z,58.11
2018-12-16T12:54:03.059Z,59.33
2018-12-16T13:32:01.127Z,61.78
2018-12-16T13:44:03.202Z,59.76
2018-12-16T13:46:41.524Z,61.17
2018-12-16T13:49:10.244Z,61.48
2018-12-16T13:51:42.181Z,61.80
2018-12-16T14:00:48.907Z,63.78
2018-12-16T14:03:21.857Z,63.47
2018-12-16T14:06:07.959Z,63.05
2018-12-16T14:09:02.119Z,62.29
2018-12-16T14:11:37.706Z,63.71
2018-12-16T14:14:07.342Z,62.88
2018-12-16T14:16:43.449Z,62.32
2018-12-16T14:25:36.855Z,62.94
2018-12-16T14:28:05.287Z,64.12
2018-12-16T14:30:33.698Z,64.84
2018-12-16T14:33:03.092Z,66.85
2018-12-16T15:00:21.692Z,66.61
2018-12-16T15:02:51.978Z,65.98
2018-12-16T15:05:27.234Z,67.32
2018-12-16T15:08:03.415Z,66.47
2018-12-16T15:10:36.584Z,67.08
2018-12-16T15:13:16.082Z,65.77
2018-12-16T15:15:52.719Z,67.01
2018-12-16T15:18:32.326Z,65.99
2018-12-16T15:21:03.269Z,66.53
2018-12-16T15:23:36.851Z,67.66
2018-12-16T15:26:08.173Z,65.75
2018-12-16T15:28:46.768Z,65.54
2018-12-16T15:31:20.851Z,65.97
2018-12-16T15:33:57.330Z,66.02
2018-12-16T15:36:34.633Z,67.21
2018-12-16T15:39:07.135Z,67.42
2018-12-16T15:41:39.627Z,66.38
2018-12-16T15:44:09.932Z,66.31
2018-12-16T15:46:43.145Z,66.32
2018-12-16T15:49:11.934Z,66.50
2018-12-16T15:51:43.034Z,66.66
2018-12-16T15:57:46.321Z,69.61
2018-12-16T16:00:16.006Z,68.32
2018-12-16T16:03:00.232Z,68.48
2018-12-16T16:12:35.308Z,70.08
2018-12-16T16:18:21.828Z,72.04
2018-12-16T16:24:12.008Z,74.76
2018-12-16T16:33:12.700Z,70.84
2018-12-16T16:45:35.187Z,73.06
2018-12-16T16:51:39.196Z,76.13
2018-12-16T16:57:29.849Z,78.96
2018-12-16T17:09:35.968Z,76.85
2018-12-16T17:25:23.407Z,79.65
2018-12-16T17:27:54.972Z,80.65
2018-12-16T17:30:23.378Z,83.37
2018-12-16T17:32:51.762Z,83.18
2018-12-16T17:35:27.459Z,82.40
2018-12-16T17:38:10.378Z,83.68
2018-12-16T17:40:45.360Z,84.39
2018-12-16T17:43:24.678Z,83.36
2018-12-16T17:45:57.152Z,86.65
2018-12-16T17:48:29.057Z,91.16
2018-12-16T17:51:02.532Z,90.55
2018-12-16T17:53:30.958Z,90.79
2018-12-16T17:56:04.777Z,93.55
2018-12-16T17:58:37.865Z,96.10
2018-12-16T18:01:10.531Z,97.59
2018-12-16T18:03:48.015Z,98.31
2018-12-16T18:06:22.303Z,100.00
2018-12-16T18:09:01.462Z,100.00
2018-12-16T18:11:34.748Z,100.00
2018-12-16T18:14:03.397Z,100.00
2018-12-16T18:16:32.923Z,100.00
2018-12-16T18:19:01.384Z,100.00
2018-12-16T18:21:32.459Z,100.00
2018-12-16T18:24:00.903Z,100.00
2018-12-16T18:26:32.977Z,100.00
2018-12-16T18:29:01.478Z,100.00
2018-12-16T18:31:29.931Z,100.00
2018-12-16T18:33:58.280Z,100.00
2018-12-16T18:36:27.047Z,100.00
2018-12-16T18:38:57.718Z,100.00
2018-12-16T18:41:29.425Z,100.00
2018-12-16T18:43:57.955Z,100.00
2018-12-16T18:46:27.355Z,100.00
2018-12-16T18:48:55.651Z,100.00
2018-12-16T18:51:23.973Z,100.00
2018-12-16T18:53:52.285Z,100.00
2018-12-16T18:56:20.648Z,100.00
2018-12-16T18:58:49.155Z,100.00
2018-12-16T19:01:17.709Z,100.00
2018-12-16T19:03:46.166Z,100.00
2018-12-16T19:06:14.645Z,100.00
2018-12-16T19:08:43.069Z,100.00
2018-12-16T19:11:11.410Z,100.00
2018-12-16T19:13:39.777Z,100.00
2018-12-16T19:16:08.295Z,100.00
2018-12-16T19:18:36.747Z,100.00
2018-12-16T19:21:05.190Z,100.00
2018-12-16T19:23:34.605Z,100.00
2018-12-16T19:26:04.208Z,100.00
2018-12-16T19:28:32.619Z,100.00
2018-12-16T19:31:00.976Z,100.00
2018-12-16T19:33:30.555Z,100.00
2018-12-16T19:35:58.902Z,100.00
2018-12-16T19:38:27.431Z,100.00
2018-12-16T19:40:55.748Z,100.00
2018-12-16T19:43:24.170Z,100.00
2018-12-16T19:45:53.541Z,100.00
2018-12-16T19:48:21.945Z,100.00
2018-12-16T19:50:54.122Z,100.00
2018-12-16T19:53:23.352Z,100.00
2018-12-16T19:55:51.730Z,100.00
2018-12-16T19:58:20.389Z,100.00
2018-12-16T20:00:48.945Z,100.00
2018-12-16T20:03:18.506Z,100.00
2018-12-16T20:05:52.460Z,100.00
2018-12-16T20:08:21.012Z,100.00
2018-12-16T20:10:49.404Z,100.00
2018-12-16T20:13:17.803Z,100.00
2018-12-16T20:15:46.094Z,100.00
2018-12-16T20:18:14.366Z,100.00
2018-12-16T20:20:42.694Z,100.00
2018-12-16T20:23:10.991Z,100.00
2018-12-16T20:25:39.299Z,100.00
2018-12-16T20:28:07.775Z,100.00
2018-12-16T20:30:36.264Z,100.00
2018-12-16T20:33:04.631Z,100.00
2018-12-16T20:35:33.236Z,100.00
2018-12-16T20:38:01.892Z,100.00
2018-12-16T20:40:30.738Z,100.00
2018-12-16T20:42:59.645Z,100.00
2018-12-16T20:45:27.943Z,100.00
2018-12-16T20:47:56.515Z,100.00
2018-12-16T20:50:26.069Z,100.00
2018-12-16T20:52:54.435Z,100.00
2018-12-16T20:55:22.882Z,100.00
2018-12-16T20:57:51.224Z,100.00
2018-12-16T21:00:21.494Z,100.00
2018-12-16T21:02:58.882Z,100.00
2018-12-16T21:05:27.446Z,100.00
2018-12-16T21:07:56.007Z,100.00
2018-12-16T21:10:24.387Z,100.00
2018-12-16T21:12:58.287Z,100.00
2018-12-16T21:15:32.063Z,100.00
2018-12-16T21:18:05.925Z,100.00
2018-12-16T21:20:34.294Z,100.00
2018-12-16T21:23:02.883Z,100.00
2018-12-16T21:25:31.663Z,100.00
2018-12-16T21:27:59.991Z,100.00
2018-12-16T21:30:28.385Z,100.00
2018-12-16T21:32:56.944Z,100.00
2018-12-16T21:35:25.446Z,100.00
2018-12-16T21:37:53.778Z,100.00
2018-12-16T21:40:22.143Z,100.00
2018-12-16T21:42:50.507Z,100.00
2018-12-16T21:45:18.838Z,100.00
2018-12-16T21:47:47.280Z,100.00
2018-12-16T21:50:17.347Z,100.00
2018-12-16T21:52:46.908Z,100.00
2018-12-16T21:55:17.355Z,100.00
2018-12-16T21:57:46.432Z,100.00
2018-12-16T22:00:17.888Z,100.00
2018-12-16T22:02:51.397Z,100.00
2018-12-16T22:05:22.481Z,100.00
2018-12-16T22:07:51.114Z,100.00
2018-12-16T22:10:19.508Z,100.00
2018-12-16T22:12:47.826Z,100.00
2018-12-16T22:15:17.285Z,100.00
2018-12-16T22:17:45.608Z,100.00
2018-12-16T22:20:17.628Z,100.00
2018-12-16T22:22:46.002Z,100.00
2018-12-16T22:25:16.236Z,100.00
2018-12-16T22:27:44.565Z,100.00
2018-12-16T22:30:12.990Z,100.00
2018-12-16T22:32:41.332Z,100.00
2018-12-16T22:35:13.981Z,100.00
2018-12-16T22:37:45.969Z,100.00
2018-12-16T22:40:18.052Z,100.00
2018-12-16T22:42:46.355Z,100.00
2018-12-16T22:45:16.399Z,100.00
2018-12-16T22:47:44.826Z,100.00
